International Virtual Aviation Organisation

Russian Federation and Kazakhstan MCD

 

Карточка аэропорта UAKK

Внимание!
Информация на этой странице в стадии наполнения.
Если вы не увидели какой-то информации, или заметили неточность - пожалуйста сообщите нам!
Спасибо!
Команда RU-STAFF
Название аэропортаКараганда
Название аэропорта (англ.)Karaganda
Превышение1768 ft. (538.9 m.)
Координаты49°40.302', 73°20.118'
Высота перехода10000
Эшелон переходаby ATC
Коды ответчика0630-0637, 7220-7227
Зона ОрВДНур-Султан РПИ (UACN)
Данные METARUAKK 271600Z 08004MPS CAVOK M14/M16 Q1025 R05/820560 NOSIG RMK QFE721/0961
Проноз погоды (TAF)UAKK 271101Z 2712/2812 14006MPS 9999 SCT020 BKN100 TXM02/2809Z TNM11/2717Z TEMPO 2712/2717 3100 -SN BR SCT007 BKN020 BECMG 2717/2719 10006MPS TEMPO 2717/2802 3100 -SHSN BR SCT005 BKN015CB FM280200 16008MPS 3100 -SHSN SCT011 BKN020CB TEMPO 2802/2812 18012MPS 0800 +SHSN BLSN BKN004 OVC011CB
NOTAMshow/hide NOTAM
AWOS   TABLE

Информация о ВПП

ВПП Длина ВПП (м.) Покрытие Курс ВПП Частота ILS
053601Железобетон50109.9
233601Железобетон230111.7

Диспетчерские позиции




Спутниковое изображение